createdAt,value
2022-09-16T00:01:55.371Z,10.90
2022-09-16T00:04:24.065Z,11.00
2022-09-16T00:06:53.906Z,11.10
2022-09-16T00:09:22.503Z,11.10
2022-09-16T00:11:51.095Z,11.10
2022-09-16T00:14:19.710Z,11.20
2022-09-16T00:16:48.420Z,11.10
2022-09-16T00:19:17.150Z,11.10
2022-09-16T00:21:48.465Z,11.10
2022-09-16T00:24:18.396Z,11.10
2022-09-16T00:26:46.912Z,11.10
2022-09-16T00:29:15.529Z,11.00
2022-09-16T00:31:44.154Z,11.00
2022-09-16T00:34:12.793Z,11.00
2022-09-16T00:36:41.362Z,10.90
2022-09-16T00:39:10.027Z,10.80
2022-09-16T00:41:39.986Z,10.80
2022-09-16T00:44:09.187Z,10.80
2022-09-16T00:46:41.538Z,10.80
2022-09-16T00:49:13.755Z,10.70
2022-09-16T00:51:43.168Z,10.80
2022-09-16T00:54:12.065Z,10.80
2022-09-16T00:56:45.088Z,10.80
2022-09-16T00:59:16.067Z,10.90
2022-09-16T01:01:45.537Z,10.90
2022-09-16T01:04:17.148Z,11.00
2022-09-16T01:06:46.004Z,11.00
2022-09-16T01:09:15.862Z,10.90
2022-09-16T01:11:45.789Z,10.90
2022-09-16T01:14:32.665Z,11.00
2022-09-16T01:17:04.629Z,11.10
2022-09-16T01:19:39.397Z,11.10
2022-09-16T01:22:17.037Z,11.20
2022-09-16T01:24:51.150Z,11.20
2022-09-16T01:27:25.603Z,11.20
2022-09-16T01:30:04.794Z,13.60
2022-09-16T01:32:39.799Z,11.30
2022-09-16T01:35:11.781Z,11.40
2022-09-16T01:37:49.116Z,11.40
2022-09-16T01:40:20.592Z,11.40
2022-09-16T01:42:51.823Z,11.50
2022-09-16T01:45:22.520Z,11.40
2022-09-16T01:47:56.331Z,11.40
2022-09-16T01:50:26.748Z,11.50
2022-09-16T01:52:59.644Z,11.50
2022-09-16T01:55:31.222Z,11.50
2022-09-16T01:58:02.874Z,11.50
2022-09-16T02:00:32.674Z,11.50
2022-09-16T02:03:04.851Z,11.50
2022-09-16T02:05:35.768Z,11.50
2022-09-16T02:08:07.170Z,11.50
2022-09-16T02:10:37.645Z,11.60
2022-09-16T02:13:10.177Z,11.60
2022-09-16T02:15:41.098Z,11.60
2022-09-16T02:18:12.654Z,11.50
2022-09-16T02:20:44.016Z,11.60
2022-09-16T02:23:15.747Z,11.50
2022-09-16T02:25:46.353Z,11.50
2022-09-16T02:28:17.748Z,11.60
2022-09-16T02:30:48.952Z,11.60
2022-09-16T02:33:19.933Z,11.60
2022-09-16T02:35:49.609Z,11.60
2022-09-16T02:38:21.491Z,11.60
2022-09-16T02:40:52.772Z,11.50
2022-09-16T02:43:21.618Z,11.50
2022-09-16T02:45:53.189Z,11.60
2022-09-16T02:48:28.312Z,11.50
2022-09-16T02:51:01.599Z,11.50
2022-09-16T02:53:35.468Z,11.50
2022-09-16T02:56:07.104Z,11.50
2022-09-16T02:58:36.105Z,11.60
2022-09-16T03:01:05.825Z,11.60
2022-09-16T03:03:35.744Z,11.50
2022-09-16T03:06:21.984Z,11.40
2022-09-16T03:08:51.771Z,11.40
2022-09-16T03:11:30.107Z,11.30
2022-09-16T03:14:05.116Z,11.20
2022-09-16T03:16:37.609Z,11.10
2022-09-16T03:19:12.804Z,11.00
2022-09-16T03:21:45.806Z,10.80
2022-09-16T03:24:18.156Z,10.80
2022-09-16T03:26:47.746Z,10.60
2022-09-16T03:29:20.195Z,10.60
2022-09-16T03:31:51.946Z,10.50
2022-09-16T03:34:25.178Z,10.50
2022-09-16T03:36:55.525Z,10.50
2022-09-16T03:39:24.126Z,10.50
2022-09-16T03:41:53.209Z,10.40
2022-09-16T03:44:32.326Z,10.30
2022-09-16T03:47:01.059Z,10.30
2022-09-16T03:49:31.266Z,10.30
2022-09-16T03:52:00.523Z,10.20
2022-09-16T03:54:29.065Z,10.20
2022-09-16T03:56:57.662Z,10.10
2022-09-16T03:59:26.380Z,10.10
2022-09-16T04:01:55.209Z,10.20
2022-09-16T04:04:23.769Z,10.20
2022-09-16T04:06:53.838Z,10.10
2022-09-16T04:09:22.556Z,10.20
2022-09-16T04:11:51.071Z,10.10
2022-09-16T04:14:20.401Z,10.10
2022-09-16T04:16:48.948Z,10.20
2022-09-16T04:19:17.797Z,10.10
2022-09-16T04:21:46.320Z,10.20
2022-09-16T04:24:16.288Z,10.20
2022-09-16T04:26:45.263Z,10.20
2022-09-16T04:29:14.050Z,10.30
2022-09-16T04:31:43.003Z,10.40
2022-09-16T04:34:12.402Z,10.40
2022-09-16T04:36:41.049Z,10.40
2022-09-16T04:39:09.630Z,10.40
2022-09-16T04:41:39.805Z,10.30
2022-09-16T04:44:08.358Z,10.30
2022-09-16T04:46:36.950Z,10.30
2022-09-16T04:49:05.650Z,10.30
2022-09-16T04:51:34.241Z,10.30
2022-09-16T04:54:02.932Z,10.30
2022-09-16T04:56:32.414Z,10.30
2022-09-16T04:59:03.975Z,10.30
2022-09-16T05:01:33.923Z,10.50
2022-09-16T05:04:04.013Z,10.50
2022-09-16T05:06:33.561Z,10.50
2022-09-16T05:09:02.803Z,10.60
2022-09-16T05:11:33.494Z,10.60
2022-09-16T05:14:04.942Z,10.60
2022-09-16T05:16:34.047Z,10.50
2022-09-16T05:19:04.921Z,10.50
2022-09-16T05:21:35.446Z,10.60
2022-09-16T05:24:04.912Z,10.70
2022-09-16T05:26:35.403Z,10.80
2022-09-16T05:29:06.413Z,10.90
2022-09-16T05:31:35.982Z,11.00
2022-09-16T05:34:05.682Z,11.10
2022-09-16T05:36:35.184Z,11.20
2022-09-16T05:41:54.686Z,11.30
2022-09-16T05:44:24.876Z,11.20
2022-09-16T05:46:54.104Z,11.20
2022-09-16T05:49:23.877Z,12.00
2022-09-16T05:51:53.150Z,11.30
2022-09-16T05:54:25.258Z,11.30
2022-09-16T05:56:54.337Z,11.40
2022-09-16T05:59:24.698Z,11.50
2022-09-16T06:01:53.451Z,11.60
2022-09-16T06:04:22.131Z,11.70
2022-09-16T06:06:50.871Z,11.90
2022-09-16T06:09:21.295Z,12.10
2022-09-16T06:11:51.014Z,12.30
2022-09-16T06:14:20.843Z,12.30
2022-09-16T06:31:12.699Z,12.50
2022-09-16T06:33:42.872Z,12.50
2022-09-16T06:36:12.538Z,12.50
2022-09-16T06:38:41.707Z,12.60
2022-09-16T06:41:11.303Z,12.70
2022-09-16T06:43:40.170Z,12.90
2022-09-16T06:46:13.720Z,13.10
2022-09-16T07:11:45.487Z,13.40
2022-09-16T07:14:14.404Z,13.80
2022-09-16T07:16:43.124Z,13.70
2022-09-16T07:41:49.680Z,13.80
2022-09-16T07:44:19.909Z,13.90
2022-09-16T07:46:51.397Z,13.90
2022-09-16T07:49:20.426Z,13.90
2022-09-16T07:51:49.173Z,13.80
2022-09-16T07:54:19.994Z,13.70
2022-09-16T07:56:50.055Z,13.70
2022-09-16T07:59:19.739Z,13.70
2022-09-16T08:01:49.518Z,13.70
2022-09-16T08:06:47.228Z,14.10
2022-09-16T08:12:08.118Z,14.50
2022-09-16T08:14:37.003Z,14.40
2022-09-16T08:17:05.851Z,14.70
2022-09-16T08:19:34.660Z,14.90
2022-09-16T08:24:32.553Z,15.10
2022-09-16T08:27:01.030Z,14.70
2022-09-16T08:29:31.063Z,15.00
2022-09-16T08:31:59.768Z,15.00
2022-09-16T08:34:28.375Z,15.10
2022-09-16T08:36:57.049Z,15.20
2022-09-16T08:39:25.566Z,15.20
2022-09-16T08:42:09.624Z,15.60
2022-09-16T08:44:44.737Z,15.60
2022-09-16T08:47:23.421Z,15.50
2022-09-16T08:49:54.355Z,15.50
2022-09-16T08:52:28.385Z,15.50
2022-09-16T08:54:58.604Z,15.40
2022-09-16T09:12:26.836Z,15.80
2022-09-16T09:20:01.749Z,16.10
2022-09-16T09:25:06.418Z,15.40
2022-09-16T09:27:41.875Z,15.30
2022-09-16T09:30:14.573Z,15.20
2022-09-16T09:32:50.439Z,15.20
2022-09-16T09:35:33.937Z,15.50
2022-09-16T09:38:28.939Z,15.90
2022-09-16T09:41:01.081Z,16.00
2022-09-16T09:43:34.380Z,16.00
2022-09-16T09:46:04.706Z,16.00
2022-09-16T09:48:36.791Z,16.20
2022-09-16T09:51:08.138Z,15.90
2022-09-16T09:53:37.876Z,15.40
2022-09-16T09:56:13.298Z,15.00
2022-09-16T09:58:45.530Z,15.10
2022-09-16T10:01:16.314Z,15.20
2022-09-16T10:03:45.479Z,15.40
2022-09-16T10:06:14.276Z,15.30
2022-09-16T10:08:46.283Z,15.20
2022-09-16T10:11:19.491Z,15.00
2022-09-16T10:13:54.469Z,14.90
2022-09-16T10:16:25.296Z,14.90
2022-09-16T10:18:56.788Z,15.20
2022-09-16T10:21:26.673Z,15.70
2022-09-16T10:23:57.347Z,16.00
2022-09-16T10:26:26.870Z,16.50
2022-09-16T10:28:58.749Z,16.90
2022-09-16T10:31:33.682Z,17.40
2022-09-16T10:34:04.347Z,16.80
2022-09-16T10:36:35.160Z,16.90
2022-09-16T10:39:05.574Z,17.00
2022-09-16T10:41:35.876Z,17.00
2022-09-16T10:44:08.680Z,17.10
2022-09-16T10:46:38.047Z,16.60
2022-09-16T10:49:11.282Z,16.10
2022-09-16T10:51:39.985Z,15.80
2022-09-16T10:54:23.899Z,15.70
2022-09-16T10:56:53.060Z,15.70
2022-09-16T10:59:23.164Z,15.90
2022-09-16T11:01:56.346Z,15.80
2022-09-16T11:04:43.730Z,16.20
2022-09-16T11:07:18.917Z,16.70
2022-09-16T11:09:53.826Z,17.20
2022-09-16T11:12:29.435Z,17.50
2022-09-16T11:15:03.893Z,17.70
2022-09-16T11:17:37.801Z,17.70
2022-09-16T11:20:20.757Z,17.60
2022-09-16T11:22:56.460Z,17.30
2022-09-16T11:25:31.480Z,17.50
2022-09-16T11:28:04.153Z,17.60
2022-09-16T11:30:39.184Z,17.40
2022-09-16T11:36:00.377Z,16.50
2022-09-16T11:38:42.401Z,16.10
2022-09-16T11:41:17.405Z,16.30
2022-09-16T11:46:20.592Z,16.10
2022-09-16T11:51:26.876Z,15.70
2022-09-16T11:54:02.751Z,16.00
2022-09-16T11:56:36.276Z,15.60
2022-09-16T11:59:06.624Z,15.90
2022-09-16T12:01:38.859Z,16.20
2022-09-16T12:04:09.116Z,16.50
2022-09-16T12:06:40.660Z,17.00
2022-09-16T12:09:14.482Z,17.00
2022-09-16T12:11:46.003Z,16.90
2022-09-16T12:14:16.866Z,16.70
2022-09-16T12:16:49.270Z,16.50
2022-09-16T12:19:21.449Z,16.20
2022-09-16T12:21:57.497Z,16.20
2022-09-16T12:24:32.230Z,16.40
2022-09-16T12:27:06.032Z,17.10
2022-09-16T12:29:40.142Z,18.50
2022-09-16T12:32:14.356Z,18.60
2022-09-16T12:34:45.402Z,19.20
2022-09-16T12:37:21.191Z,19.20
2022-09-16T12:39:50.130Z,19.10
2022-09-16T12:42:28.590Z,18.80
2022-09-16T12:45:15.937Z,18.80
2022-09-16T12:47:56.697Z,18.50
2022-09-16T12:50:39.180Z,18.00
2022-09-16T12:53:33.121Z,17.60
2022-09-16T12:56:08.873Z,17.40
2022-09-16T12:58:47.957Z,17.00
2022-09-16T13:01:23.135Z,16.90
2022-09-16T13:03:54.743Z,17.20
2022-09-16T13:06:26.633Z,17.40
2022-09-16T13:08:55.733Z,17.80
2022-09-16T13:14:26.722Z,18.40
2022-09-16T13:16:56.661Z,18.30
2022-09-16T13:19:44.568Z,18.00
2022-09-16T13:22:24.816Z,17.90
2022-09-16T13:24:56.483Z,17.80
2022-09-16T13:27:27.436Z,17.70
2022-09-16T13:30:18.057Z,17.60
2022-09-16T13:32:58.595Z,17.50
2022-09-16T13:35:37.580Z,17.50
2022-09-16T13:38:24.159Z,17.40
2022-09-16T13:43:29.811Z,16.80
2022-09-16T13:46:06.169Z,16.60
2022-09-16T13:48:40.824Z,16.60
2022-09-16T13:51:11.883Z,16.60
2022-09-16T13:53:45.160Z,16.50
2022-09-16T13:56:22.201Z,16.50
2022-09-16T13:58:54.880Z,16.60
2022-09-16T14:01:37.045Z,16.70
2022-09-16T14:04:20.592Z,16.90
2022-09-16T14:06:57.239Z,17.20
2022-09-16T14:09:36.428Z,17.20
2022-09-16T14:12:10.560Z,17.30
2022-09-16T14:14:48.017Z,17.40
2022-09-16T14:17:18.985Z,17.50
2022-09-16T14:19:49.773Z,17.40
2022-09-16T14:22:21.782Z,17.40
2022-09-16T14:25:00.694Z,17.20
2022-09-16T14:27:39.668Z,17.10
2022-09-16T14:30:15.229Z,17.00
2022-09-16T14:32:44.551Z,16.80
2022-09-16T14:35:18.793Z,16.80
2022-09-16T14:37:48.401Z,16.80
2022-09-16T14:40:20.629Z,17.00
2022-09-16T14:42:51.530Z,17.00
2022-09-16T14:45:21.171Z,16.80
2022-09-16T14:47:52.064Z,16.60
2022-09-16T14:50:22.532Z,16.80
2022-09-16T14:52:55.081Z,16.80
2022-09-16T14:55:26.084Z,16.60
2022-09-16T14:57:54.804Z,16.60
2022-09-16T15:00:29.289Z,16.20
2022-09-16T15:05:30.695Z,16.50
2022-09-16T15:08:13.658Z,16.50
2022-09-16T15:10:52.890Z,16.40
2022-09-16T15:13:23.730Z,16.30
2022-09-16T15:15:54.690Z,16.20
2022-09-16T15:18:25.512Z,16.10
2022-09-16T15:20:56.789Z,15.90
2022-09-16T15:23:26.223Z,15.60
2022-09-16T15:25:57.691Z,15.70
2022-09-16T15:28:26.827Z,16.10
2022-09-16T15:30:56.257Z,16.10
2022-09-16T15:33:31.125Z,15.90
2022-09-16T15:36:01.827Z,16.00
2022-09-16T15:38:31.323Z,16.00
2022-09-16T15:41:05.620Z,16.10
2022-09-16T15:43:39.342Z,16.60
2022-09-16T15:46:16.272Z,17.20
2022-09-16T15:48:46.003Z,17.60
2022-09-16T15:51:28.372Z,17.90
2022-09-16T15:54:00.056Z,17.40
2022-09-16T15:56:33.614Z,16.70
2022-09-16T15:59:03.965Z,16.90
2022-09-16T16:01:38.804Z,16.20
2022-09-16T16:04:08.877Z,15.50
2022-09-16T16:06:51.773Z,15.50
2022-09-16T16:24:37.921Z,14.60
2022-09-16T16:27:06.931Z,16.20
2022-09-16T16:29:35.902Z,14.30
2022-09-16T16:32:09.105Z,14.20
2022-09-16T16:34:38.635Z,14.10
2022-09-16T16:37:07.875Z,14.00
2022-09-16T16:39:36.512Z,14.00
2022-09-16T16:42:06.955Z,13.90
2022-09-16T16:44:36.529Z,13.70
2022-09-16T16:47:05.379Z,13.60
2022-09-16T16:49:35.257Z,13.50
2022-09-16T16:52:05.226Z,13.30
2022-09-16T16:54:34.571Z,13.20
2022-09-16T16:57:04.429Z,13.10
2022-09-16T16:59:34.691Z,13.00
2022-09-16T17:02:05.093Z,13.00
2022-09-16T17:04:33.691Z,13.00
2022-09-16T17:07:24.495Z,12.90
2022-09-16T17:09:52.330Z,12.90
2022-09-16T17:12:21.059Z,12.90
2022-09-16T17:14:50.972Z,12.90
2022-09-16T17:17:19.969Z,12.90
2022-09-16T17:19:48.560Z,12.70
2022-09-16T17:22:18.332Z,12.60
2022-09-16T17:24:46.816Z,12.50
2022-09-16T17:27:19.802Z,12.30
2022-09-16T17:29:48.436Z,12.20
2022-09-16T17:32:18.376Z,12.20
2022-09-16T17:34:46.940Z,12.10
2022-09-16T17:37:17.159Z,12.00
2022-09-16T17:39:45.928Z,12.00
2022-09-16T17:42:14.521Z,11.80
2022-09-16T17:44:43.706Z,11.80
2022-09-16T17:47:12.347Z,11.70
2022-09-16T17:49:42.366Z,11.60
2022-09-16T17:52:11.090Z,11.50
2022-09-16T17:54:40.967Z,11.50
2022-09-16T17:57:09.684Z,11.50
2022-09-16T17:59:38.561Z,11.50
2022-09-16T18:02:09.305Z,11.60
2022-09-16T18:04:38.065Z,11.60
2022-09-16T18:07:08.153Z,11.60
2022-09-16T18:09:37.314Z,11.60
2022-09-16T18:12:06.014Z,11.60
2022-09-16T18:14:34.667Z,11.70
2022-09-16T18:17:03.422Z,11.70
2022-09-16T18:19:32.158Z,11.70
2022-09-16T18:22:00.833Z,11.70
2022-09-16T18:24:30.726Z,11.70
2022-09-16T18:27:02.276Z,11.60
2022-09-16T18:29:31.580Z,11.60
2022-09-16T18:32:00.399Z,11.60
2022-09-16T18:34:33.334Z,11.50
2022-09-16T18:37:02.771Z,11.40
2022-09-16T18:39:32.965Z,11.40
2022-09-16T18:42:01.576Z,11.30
2022-09-16T18:44:30.166Z,11.30
2022-09-16T18:46:59.924Z,11.10
2022-09-16T18:49:30.256Z,11.10
2022-09-16T18:51:59.333Z,11.10
2022-09-16T18:54:29.225Z,11.10
2022-09-16T18:57:00.377Z,11.10
2022-09-16T18:59:29.735Z,11.10
2022-09-16T19:01:59.397Z,11.00
2022-09-16T19:04:29.145Z,11.00
2022-09-16T19:07:06.227Z,11.00
2022-09-16T19:09:36.095Z,11.00
2022-09-16T19:12:06.863Z,11.00
2022-09-16T19:14:35.669Z,10.90
2022-09-16T19:17:04.779Z,10.90
2022-09-16T19:19:33.627Z,10.70
2022-09-16T19:22:05.774Z,10.70
2022-09-16T19:24:34.870Z,10.70
2022-09-16T19:27:04.112Z,10.60
2022-09-16T19:29:34.128Z,10.50
2022-09-16T19:32:02.930Z,10.50
2022-09-16T19:34:31.604Z,10.50
2022-09-16T19:37:00.248Z,10.50
2022-09-16T19:39:29.129Z,10.50
2022-09-16T19:42:03.201Z,10.50
2022-09-16T19:44:32.227Z,10.40
2022-09-16T19:47:03.366Z,10.30
2022-09-16T19:49:32.061Z,10.30
2022-09-16T19:52:00.895Z,10.30
2022-09-16T19:54:29.582Z,10.20
2022-09-16T19:56:59.940Z,10.20
2022-09-16T19:59:28.620Z,10.10
2022-09-16T20:01:58.736Z,10.10
2022-09-16T20:04:29.451Z,10.10
2022-09-16T20:06:58.389Z,10.10
2022-09-16T20:09:27.268Z,10.10
2022-09-16T20:11:55.968Z,10.10
2022-09-16T20:14:33.654Z,10.00
2022-09-16T20:17:02.541Z,10.00
2022-09-16T20:19:33.276Z,9.90
2022-09-16T20:22:02.993Z,10.00
2022-09-16T20:24:31.976Z,10.00
2022-09-16T20:27:04.798Z,10.00
2022-09-16T20:29:33.518Z,10.00
2022-09-16T20:32:02.378Z,9.90
2022-09-16T20:34:32.594Z,9.90
2022-09-16T20:37:02.184Z,9.80
2022-09-16T20:39:31.430Z,9.70
2022-09-16T20:42:00.125Z,9.70
2022-09-16T20:44:29.515Z,9.70
2022-09-16T20:46:58.264Z,9.70
2022-09-16T20:49:26.969Z,9.60
2022-09-16T20:51:57.479Z,9.50
2022-09-16T20:54:26.738Z,9.60
2022-09-16T20:56:56.692Z,9.10
2022-09-16T20:59:25.564Z,9.50
2022-09-16T21:01:54.347Z,9.50
2022-09-16T21:04:23.113Z,9.40
2022-09-16T21:06:51.684Z,9.30
2022-09-16T21:09:21.562Z,9.20
2022-09-16T21:11:52.249Z,9.20
2022-09-16T21:14:22.645Z,9.30
2022-09-16T21:16:52.602Z,9.20
2022-09-16T21:19:21.895Z,7.40
2022-09-16T21:21:51.307Z,9.10
2022-09-16T21:24:21.995Z,9.10
2022-09-16T21:26:52.291Z,9.10
2022-09-16T21:29:21.550Z,9.00
2022-09-16T21:31:50.499Z,9.00
2022-09-16T21:34:20.675Z,9.00
2022-09-16T21:36:50.741Z,9.10
2022-09-16T21:39:21.969Z,8.90
2022-09-16T21:41:50.963Z,8.80
2022-09-16T21:44:20.612Z,9.00
2022-09-16T21:46:50.022Z,9.00
2022-09-16T21:49:23.045Z,8.90
2022-09-16T21:51:52.850Z,9.00
2022-09-16T21:54:22.952Z,9.00
2022-09-16T21:56:52.392Z,8.90
2022-09-16T21:59:21.098Z,8.90
2022-09-16T22:01:50.905Z,8.90
2022-09-16T22:04:20.715Z,8.90
2022-09-16T22:06:49.994Z,8.90
2022-09-16T22:09:18.763Z,8.90
2022-09-16T22:11:48.956Z,8.90
2022-09-16T22:14:18.577Z,8.90
2022-09-16T22:16:47.336Z,8.90
2022-09-16T22:19:17.317Z,8.90
2022-09-16T22:21:47.755Z,8.90
2022-09-16T22:24:20.682Z,8.80
2022-09-16T22:26:52.387Z,8.80
2022-09-16T22:29:21.282Z,8.90
2022-09-16T22:31:50.660Z,10.70
2022-09-16T22:34:19.582Z,8.70
2022-09-16T22:36:48.373Z,8.80
2022-09-16T22:39:20.005Z,8.80
2022-09-16T22:41:49.535Z,8.90
2022-09-16T22:44:20.241Z,8.80
2022-09-16T22:46:49.186Z,8.80
2022-09-16T22:49:19.081Z,8.70
2022-09-16T22:51:48.885Z,8.70
2022-09-16T22:54:18.618Z,8.70
2022-09-16T22:56:47.467Z,8.70
2022-09-16T22:59:17.868Z,8.70
2022-09-16T23:01:47.918Z,8.60
2022-09-16T23:04:16.746Z,8.60
2022-09-16T23:06:45.451Z,8.50
2022-09-16T23:09:14.973Z,8.50
2022-09-16T23:11:43.691Z,8.50
2022-09-16T23:14:14.245Z,8.40
2022-09-16T23:16:42.846Z,8.30
2022-09-16T23:19:12.742Z,8.50
2022-09-16T23:21:41.976Z,8.50
2022-09-16T23:24:12.813Z,8.50
2022-09-16T23:26:41.750Z,8.50
2022-09-16T23:29:12.007Z,8.50
2022-09-16T23:31:41.860Z,8.50
2022-09-16T23:34:13.704Z,8.60
2022-09-16T23:36:42.532Z,8.70
2022-09-16T23:39:13.357Z,8.70
2022-09-16T23:41:42.444Z,8.80
2022-09-16T23:44:13.497Z,8.90
2022-09-16T23:46:42.504Z,8.80
2022-09-16T23:49:13.579Z,8.80
2022-09-16T23:51:42.135Z,8.70
2022-09-16T23:54:10.851Z,8.60
2022-09-16T23:56:39.679Z,8.50
2022-09-16T23:59:08.393Z,8.40
